sensor_id;sensor_type;location;lat;lon;timestamp;temperature;humidity
28087;DHT22;15392;48.912;8.380;2023-08-30T00:00:55;21.30;51.30
28087;DHT22;15392;48.912;8.380;2023-08-30T00:03:20;21.30;51.30
28087;DHT22;15392;48.912;8.380;2023-08-30T00:05:46;21.30;51.30
28087;DHT22;15392;48.912;8.380;2023-08-30T00:08:12;21.30;51.20
28087;DHT22;15392;48.912;8.380;2023-08-30T00:10:48;21.30;51.30
28087;DHT22;15392;48.912;8.380;2023-08-30T00:13:14;21.30;51.40
28087;DHT22;15392;48.912;8.380;2023-08-30T00:15:40;21.30;51.40
28087;DHT22;15392;48.912;8.380;2023-08-30T00:18:06;21.20;51.30
28087;DHT22;15392;48.912;8.380;2023-08-30T00:20:32;21.20;51.30
28087;DHT22;15392;48.912;8.380;2023-08-30T00:22:58;21.20;51.40
28087;DHT22;15392;48.912;8.380;2023-08-30T00:25:23;21.20;51.40
28087;DHT22;15392;48.912;8.380;2023-08-30T00:27:49;21.20;51.40
28087;DHT22;15392;48.912;8.380;2023-08-30T00:30:15;21.20;51.40
28087;DHT22;15392;48.912;8.380;2023-08-30T00:32:41;21.20;51.40
28087;DHT22;15392;48.912;8.380;2023-08-30T00:35:07;21.20;51.50
28087;DHT22;15392;48.912;8.380;2023-08-30T00:37:37;21.10;51.50
28087;DHT22;15392;48.912;8.380;2023-08-30T00:44:01;21.10;52.10
28087;DHT22;15392;48.912;8.380;2023-08-30T00:46:28;21.10;51.60
28087;DHT22;15392;48.912;8.380;2023-08-30T00:48:54;21.00;51.70
28087;DHT22;15392;48.912;8.380;2023-08-30T00:51:22;21.00;51.70
28087;DHT22;15392;48.912;8.380;2023-08-30T00:53:48;21.00;51.70
28087;DHT22;15392;48.912;8.380;2023-08-30T00:56:15;21.10;51.80
28087;DHT22;15392;48.912;8.380;2023-08-30T00:58:41;21.00;51.70
28087;DHT22;15392;48.912;8.380;2023-08-30T01:01:07;21.00;51.70
28087;DHT22;15392;48.912;8.380;2023-08-30T01:03:34;21.00;51.70
28087;DHT22;15392;48.912;8.380;2023-08-30T01:06:01;21.00;51.80
28087;DHT22;15392;48.912;8.380;2023-08-30T01:08:29;21.00;51.80
28087;DHT22;15392;48.912;8.380;2023-08-30T01:14:21;21.00;52.20
28087;DHT22;15392;48.912;8.380;2023-08-30T01:16:49;21.00;51.90
28087;DHT22;15392;48.912;8.380;2023-08-30T01:19:53;21.00;51.70
28087;DHT22;15392;48.912;8.380;2023-08-30T01:22:36;21.00;51.80
28087;DHT22;15392;48.912;8.380;2023-08-30T01:27:54;20.90;51.80
28087;DHT22;15392;48.912;8.380;2023-08-30T01:30:22;20.90;51.60
28087;DHT22;15392;48.912;8.380;2023-08-30T01:32:52;20.90;51.70
28087;DHT22;15392;48.912;8.380;2023-08-30T01:35:18;20.80;51.70
28087;DHT22;15392;48.912;8.380;2023-08-30T01:37:46;20.80;51.80
28087;DHT22;15392;48.912;8.380;2023-08-30T01:40:13;20.80;51.80
28087;DHT22;15392;48.912;8.380;2023-08-30T01:42:42;20.80;51.90
28087;DHT22;15392;48.912;8.380;2023-08-30T01:45:10;20.80;51.90
28087;DHT22;15392;48.912;8.380;2023-08-30T01:47:40;20.80;51.90
28087;DHT22;15392;48.912;8.380;2023-08-30T01:50:07;20.80;52.00
28087;DHT22;15392;48.912;8.380;2023-08-30T01:52:34;20.80;51.90
28087;DHT22;15392;48.912;8.380;2023-08-30T01:55:02;20.80;52.00
28087;DHT22;15392;48.912;8.380;2023-08-30T01:57:28;20.80;52.00
28087;DHT22;15392;48.912;8.380;2023-08-30T01:59:53;20.70;51.90
28087;DHT22;15392;48.912;8.380;2023-08-30T02:02:19;20.70;51.90
28087;DHT22;15392;48.912;8.380;2023-08-30T02:04:47;20.70;52.00
28087;DHT22;15392;48.912;8.380;2023-08-30T02:07:17;20.70;52.10
28087;DHT22;15392;48.912;8.380;2023-08-30T02:10:04;20.70;52.30
28087;DHT22;15392;48.912;8.380;2023-08-30T02:13:09;20.70;52.10
28087;DHT22;15392;48.912;8.380;2023-08-30T02:15:29;20.70;52.20
28087;DHT22;15392;48.912;8.380;2023-08-30T02:17:56;20.70;52.00
28087;DHT22;15392;48.912;8.380;2023-08-30T02:20:23;20.70;52.10
28087;DHT22;15392;48.912;8.380;2023-08-30T02:22:49;20.70;52.10
28087;DHT22;15392;48.912;8.380;2023-08-30T02:25:15;20.70;52.10
28087;DHT22;15392;48.912;8.380;2023-08-30T02:27:41;20.70;52.10
28087;DHT22;15392;48.912;8.380;2023-08-30T02:30:07;20.60;52.10
28087;DHT22;15392;48.912;8.380;2023-08-30T02:32:34;20.60;52.10
28087;DHT22;15392;48.912;8.380;2023-08-30T02:35:00;20.70;52.10
28087;DHT22;15392;48.912;8.380;2023-08-30T02:37:27;20.60;52.00
28087;DHT22;15392;48.912;8.380;2023-08-30T02:39:53;20.60;52.00
28087;DHT22;15392;48.912;8.380;2023-08-30T02:42:22;20.60;52.00
28087;DHT22;15392;48.912;8.380;2023-08-30T02:44:55;20.60;52.20
28087;DHT22;15392;48.912;8.380;2023-08-30T02:47:21;20.60;52.10
28087;DHT22;15392;48.912;8.380;2023-08-30T02:49:47;20.60;52.10
28087;DHT22;15392;48.912;8.380;2023-08-30T02:52:14;20.60;52.00
28087;DHT22;15392;48.912;8.380;2023-08-30T03:36:37;20.60;52.40
28087;DHT22;15392;48.912;8.380;2023-08-30T05:57:13;20.70;52.50
28087;DHT22;15392;48.912;8.380;2023-08-30T05:59:38;20.70;52.80
28087;DHT22;15392;48.912;8.380;2023-08-30T06:02:04;20.70;52.30
28087;DHT22;15392;48.912;8.380;2023-08-30T06:04:30;20.70;52.40
28087;DHT22;15392;48.912;8.380;2023-08-30T06:06:55;20.80;52.50
28087;DHT22;15392;48.912;8.380;2023-08-30T06:09:21;20.80;52.50
28087;DHT22;15392;48.912;8.380;2023-08-30T06:11:47;20.80;52.40
28087;DHT22;15392;48.912;8.380;2023-08-30T06:14:13;20.80;52.30
28087;DHT22;15392;48.912;8.380;2023-08-30T06:16:38;20.80;52.30
28087;DHT22;15392;48.912;8.380;2023-08-30T06:19:12;20.80;52.20
28087;DHT22;15392;48.912;8.380;2023-08-30T06:21:38;20.80;52.20
28087;DHT22;15392;48.912;8.380;2023-08-30T06:24:04;20.90;52.20
28087;DHT22;15392;48.912;8.380;2023-08-30T06:26:30;20.90;52.40
28087;DHT22;15392;48.912;8.380;2023-08-30T06:28:55;20.90;52.40
28087;DHT22;15392;48.912;8.380;2023-08-30T06:31:21;20.90;52.40
28087;DHT22;15392;48.912;8.380;2023-08-30T06:33:47;20.90;52.40
28087;DHT22;15392;48.912;8.380;2023-08-30T06:36:14;20.90;52.20
28087;DHT22;15392;48.912;8.380;2023-08-30T06:38:42;21.00;52.30
28087;DHT22;15392;48.912;8.380;2023-08-30T06:41:08;21.00;52.30
28087;DHT22;15392;48.912;8.380;2023-08-30T06:43:34;21.10;52.30
28087;DHT22;15392;48.912;8.380;2023-08-30T06:46:00;21.10;52.20
28087;DHT22;15392;48.912;8.380;2023-08-30T06:48:26;21.10;52.20
28087;DHT22;15392;48.912;8.380;2023-08-30T06:50:52;21.10;52.30
28087;DHT22;15392;48.912;8.380;2023-08-30T06:53:17;21.20;52.50
28087;DHT22;15392;48.912;8.380;2023-08-30T06:55:43;21.20;52.40
28087;DHT22;15392;48.912;8.380;2023-08-30T06:58:09;21.20;52.40
28087;DHT22;15392;48.912;8.380;2023-08-30T07:00:35;21.30;52.30
28087;DHT22;15392;48.912;8.380;2023-08-30T07:03:01;21.30;52.20
28087;DHT22;15392;48.912;8.380;2023-08-30T07:05:26;21.40;52.20
28087;DHT22;15392;48.912;8.380;2023-08-30T07:07:52;21.40;52.10
28087;DHT22;15392;48.912;8.380;2023-08-30T07:10:18;21.40;52.10
28087;DHT22;15392;48.912;8.380;2023-08-30T07:12:44;21.50;52.20
28087;DHT22;15392;48.912;8.380;2023-08-30T07:15:14;21.60;52.10
28087;DHT22;15392;48.912;8.380;2023-08-30T07:17:42;21.60;52.20
28087;DHT22;15392;48.912;8.380;2023-08-30T07:20:08;21.70;52.20
28087;DHT22;15392;48.912;8.380;2023-08-30T07:22:35;21.80;52.10
28087;DHT22;15392;48.912;8.380;2023-08-30T07:25:01;21.80;52.10
28087;DHT22;15392;48.912;8.380;2023-08-30T07:27:28;21.90;52.10
28087;DHT22;15392;48.912;8.380;2023-08-30T07:29:54;22.00;52.10
28087;DHT22;15392;48.912;8.380;2023-08-30T07:32:20;22.00;52.00
28087;DHT22;15392;48.912;8.380;2023-08-30T07:34:46;22.10;51.80
28087;DHT22;15392;48.912;8.380;2023-08-30T07:37:22;22.20;51.60
28087;DHT22;15392;48.912;8.380;2023-08-30T07:39:48;22.30;51.60
28087;DHT22;15392;48.912;8.380;2023-08-30T07:42:14;22.30;51.50
28087;DHT22;15392;48.912;8.380;2023-08-30T07:44:40;22.40;51.40
28087;DHT22;15392;48.912;8.380;2023-08-30T07:47:07;22.50;51.30
28087;DHT22;15392;48.912;8.380;2023-08-30T07:49:32;22.60;51.20
28087;DHT22;15392;48.912;8.380;2023-08-30T07:51:58;22.60;51.10
28087;DHT22;15392;48.912;8.380;2023-08-30T07:54:25;22.70;51.10
28087;DHT22;15392;48.912;8.380;2023-08-30T07:56:50;22.70;51.10
28087;DHT22;15392;48.912;8.380;2023-08-30T07:59:16;22.80;51.10
28087;DHT22;15392;48.912;8.380;2023-08-30T08:01:42;22.80;51.00
28087;DHT22;15392;48.912;8.380;2023-08-30T08:04:08;22.90;51.00
28087;DHT22;15392;48.912;8.380;2023-08-30T08:06:34;22.90;51.00
28087;DHT22;15392;48.912;8.380;2023-08-30T08:09:00;23.10;51.10
28087;DHT22;15392;48.912;8.380;2023-08-30T08:11:27;23.20;51.10
28087;DHT22;15392;48.912;8.380;2023-08-30T08:13:52;23.40;51.30
28087;DHT22;15392;48.912;8.380;2023-08-30T08:16:18;23.60;51.40
28087;DHT22;15392;48.912;8.380;2023-08-30T08:18:45;23.80;51.30
28087;DHT22;15392;48.912;8.380;2023-08-30T08:21:11;24.00;51.20
28087;DHT22;15392;48.912;8.380;2023-08-30T08:23:36;24.20;51.00
28087;DHT22;15392;48.912;8.380;2023-08-30T08:26:02;24.50;50.90
28087;DHT22;15392;48.912;8.380;2023-08-30T08:28:29;24.70;50.60
28087;DHT22;15392;48.912;8.380;2023-08-30T08:30:56;25.00;50.40
28087;DHT22;15392;48.912;8.380;2023-08-30T08:33:28;25.20;50.30
28087;DHT22;15392;48.912;8.380;2023-08-30T08:36:02;25.40;50.00
28087;DHT22;15392;48.912;8.380;2023-08-30T08:38:33;25.60;49.50
28087;DHT22;15392;48.912;8.380;2023-08-30T08:41:05;25.70;48.80
28087;DHT22;15392;48.912;8.380;2023-08-30T08:43:33;25.80;49.00
28087;DHT22;15392;48.912;8.380;2023-08-30T08:46:03;25.90;48.50
28087;DHT22;15392;48.912;8.380;2023-08-30T08:48:34;26.00;48.70
28087;DHT22;15392;48.912;8.380;2023-08-30T08:51:06;26.10;48.80
28087;DHT22;15392;48.912;8.380;2023-08-30T08:53:32;26.20;48.80
28087;DHT22;15392;48.912;8.380;2023-08-30T08:55:58;26.30;48.80
28087;DHT22;15392;48.912;8.380;2023-08-30T08:58:26;26.50;48.80
28087;DHT22;15392;48.912;8.380;2023-08-30T09:00:53;26.60;48.50
28087;DHT22;15392;48.912;8.380;2023-08-30T09:03:20;26.70;48.20
28087;DHT22;15392;48.912;8.380;2023-08-30T09:05:47;26.70;47.90
28087;DHT22;15392;48.912;8.380;2023-08-30T09:08:15;26.70;47.80
28087;DHT22;15392;48.912;8.380;2023-08-30T09:10:41;26.70;47.80
28087;DHT22;15392;48.912;8.380;2023-08-30T09:13:07;26.60;47.50
28087;DHT22;15392;48.912;8.380;2023-08-30T09:15:34;26.60;47.50
28087;DHT22;15392;48.912;8.380;2023-08-30T09:18:04;26.50;47.40
28087;DHT22;15392;48.912;8.380;2023-08-30T09:20:30;26.40;47.40
28087;DHT22;15392;48.912;8.380;2023-08-30T09:22:55;26.40;47.00
28087;DHT22;15392;48.912;8.380;2023-08-30T09:25:26;26.30;47.30
28087;DHT22;15392;48.912;8.380;2023-08-30T09:27:59;26.10;47.20
28087;DHT22;15392;48.912;8.380;2023-08-30T09:30:26;26.10;47.40
28087;DHT22;15392;48.912;8.380;2023-08-30T09:32:52;25.90;47.70
28087;DHT22;15392;48.912;8.380;2023-08-30T09:35:18;25.80;47.60
28087;DHT22;15392;48.912;8.380;2023-08-30T09:37:45;25.70;47.70
28087;DHT22;15392;48.912;8.380;2023-08-30T09:40:11;25.60;47.80
28087;DHT22;15392;48.912;8.380;2023-08-30T09:42:43;25.50;48.00
28087;DHT22;15392;48.912;8.380;2023-08-30T09:45:22;25.50;47.60
28087;DHT22;15392;48.912;8.380;2023-08-30T09:47:51;25.40;47.70
28087;DHT22;15392;48.912;8.380;2023-08-30T09:50:20;25.40;47.90
28087;DHT22;15392;48.912;8.380;2023-08-30T09:52:48;25.30;48.20
28087;DHT22;15392;48.912;8.380;2023-08-30T09:55:15;25.30;48.50
28087;DHT22;15392;48.912;8.380;2023-08-30T09:57:44;25.30;48.60
28087;DHT22;15392;48.912;8.380;2023-08-30T10:00:11;25.30;48.40
28087;DHT22;15392;48.912;8.380;2023-08-30T10:02:42;25.20;48.60
28087;DHT22;15392;48.912;8.380;2023-08-30T10:05:10;25.20;48.60
28087;DHT22;15392;48.912;8.380;2023-08-30T10:07:37;25.20;48.60
28087;DHT22;15392;48.912;8.380;2023-08-30T10:10:05;25.20;48.80
28087;DHT22;15392;48.912;8.380;2023-08-30T10:12:34;25.20;48.90
28087;DHT22;15392;48.912;8.380;2023-08-30T10:15:00;25.20;48.80
28087;DHT22;15392;48.912;8.380;2023-08-30T10:17:28;25.20;49.00
28087;DHT22;15392;48.912;8.380;2023-08-30T10:19:57;25.20;49.10
28087;DHT22;15392;48.912;8.380;2023-08-30T10:22:25;25.30;49.30
28087;DHT22;15392;48.912;8.380;2023-08-30T10:24:57;25.30;49.10
28087;DHT22;15392;48.912;8.380;2023-08-30T10:27:26;25.30;48.90
28087;DHT22;15392;48.912;8.380;2023-08-30T10:29:54;25.40;48.80
28087;DHT22;15392;48.912;8.380;2023-08-30T10:32:21;25.30;48.40
28087;DHT22;15392;48.912;8.380;2023-08-30T10:34:49;25.30;48.30
28087;DHT22;15392;48.912;8.380;2023-08-30T10:37:15;25.30;48.30
28087;DHT22;15392;48.912;8.380;2023-08-30T10:39:42;25.30;48.10
28087;DHT22;15392;48.912;8.380;2023-08-30T10:42:13;25.30;48.40
28087;DHT22;15392;48.912;8.380;2023-08-30T10:44:57;25.30;48.20
28087;DHT22;15392;48.912;8.380;2023-08-30T10:47:26;25.30;48.20
28087;DHT22;15392;48.912;8.380;2023-08-30T10:49:54;25.30;48.60
28087;DHT22;15392;48.912;8.380;2023-08-30T10:52:21;25.40;48.50
28087;DHT22;15392;48.912;8.380;2023-08-30T10:54:48;25.30;48.40
28087;DHT22;15392;48.912;8.380;2023-08-30T10:57:23;25.40;48.40
28087;DHT22;15392;48.912;8.380;2023-08-30T11:00:10;25.40;48.10
28087;DHT22;15392;48.912;8.380;2023-08-30T11:02:44;25.40;47.90
28087;DHT22;15392;48.912;8.380;2023-08-30T11:05:15;25.40;48.30
28087;DHT22;15392;48.912;8.380;2023-08-30T11:07:45;25.40;48.20
28087;DHT22;15392;48.912;8.380;2023-08-30T11:10:12;25.40;48.50
28087;DHT22;15392;48.912;8.380;2023-08-30T11:12:44;25.40;48.70
28087;DHT22;15392;48.912;8.380;2023-08-30T11:15:12;25.40;48.20
28087;DHT22;15392;48.912;8.380;2023-08-30T11:17:39;25.40;48.60
28087;DHT22;15392;48.912;8.380;2023-08-30T11:20:10;25.40;48.60
28087;DHT22;15392;48.912;8.380;2023-08-30T11:22:46;25.40;48.40
28087;DHT22;15392;48.912;8.380;2023-08-30T11:25:13;25.50;48.60
28087;DHT22;15392;48.912;8.380;2023-08-30T11:27:41;25.50;48.50
28087;DHT22;15392;48.912;8.380;2023-08-30T11:30:09;25.50;48.70
28087;DHT22;15392;48.912;8.380;2023-08-30T11:32:36;25.50;48.40
28087;DHT22;15392;48.912;8.380;2023-08-30T11:35:06;25.50;48.30
28087;DHT22;15392;48.912;8.380;2023-08-30T11:37:32;25.60;48.30
28087;DHT22;15392;48.912;8.380;2023-08-30T11:40:00;25.60;48.30
28087;DHT22;15392;48.912;8.380;2023-08-30T11:42:30;25.60;48.40
28087;DHT22;15392;48.912;8.380;2023-08-30T11:44:58;25.60;48.30
28087;DHT22;15392;48.912;8.380;2023-08-30T11:47:25;25.70;48.20
28087;DHT22;15392;48.912;8.380;2023-08-30T11:49:55;25.70;48.30
28087;DHT22;15392;48.912;8.380;2023-08-30T11:52:23;25.80;48.40
28087;DHT22;15392;48.912;8.380;2023-08-30T11:54:50;25.80;48.40
28087;DHT22;15392;48.912;8.380;2023-08-30T11:57:16;25.80;48.40
28087;DHT22;15392;48.912;8.380;2023-08-30T11:59:43;25.80;48.30
28087;DHT22;15392;48.912;8.380;2023-08-30T12:02:09;25.90;48.20
28087;DHT22;15392;48.912;8.380;2023-08-30T12:04:45;25.90;48.20
28087;DHT22;15392;48.912;8.380;2023-08-30T12:07:22;25.90;47.80
28087;DHT22;15392;48.912;8.380;2023-08-30T12:09:48;25.90;47.50
28087;DHT22;15392;48.912;8.380;2023-08-30T12:12:14;25.90;48.20
28087;DHT22;15392;48.912;8.380;2023-08-30T12:14:40;25.90;48.10
28087;DHT22;15392;48.912;8.380;2023-08-30T12:17:08;25.90;47.90
28087;DHT22;15392;48.912;8.380;2023-08-30T12:19:36;26.00;47.90
28087;DHT22;15392;48.912;8.380;2023-08-30T12:22:06;26.00;47.70
28087;DHT22;15392;48.912;8.380;2023-08-30T12:24:46;26.00;47.50
28087;DHT22;15392;48.912;8.380;2023-08-30T12:27:13;26.00;47.20
28087;DHT22;15392;48.912;8.380;2023-08-30T12:29:39;26.00;47.50
28087;DHT22;15392;48.912;8.380;2023-08-30T12:32:07;26.10;47.90
28087;DHT22;15392;48.912;8.380;2023-08-30T12:34:33;26.10;47.80
28087;DHT22;15392;48.912;8.380;2023-08-30T12:36:59;26.10;47.30
28087;DHT22;15392;48.912;8.380;2023-08-30T12:39:27;26.10;47.20
28087;DHT22;15392;48.912;8.380;2023-08-30T12:41:53;26.10;47.20
28087;DHT22;15392;48.912;8.380;2023-08-30T12:44:19;26.20;47.50
28087;DHT22;15392;48.912;8.380;2023-08-30T12:46:45;26.20;47.50
28087;DHT22;15392;48.912;8.380;2023-08-30T12:49:11;26.20;47.60
28087;DHT22;15392;48.912;8.380;2023-08-30T12:51:36;26.20;47.70
28087;DHT22;15392;48.912;8.380;2023-08-30T12:54:02;26.30;47.20
28087;DHT22;15392;48.912;8.380;2023-08-30T12:56:28;26.30;47.40
28087;DHT22;15392;48.912;8.380;2023-08-30T12:58:54;26.30;47.10
28087;DHT22;15392;48.912;8.380;2023-08-30T13:01:20;26.40;46.90
28087;DHT22;15392;48.912;8.380;2023-08-30T13:03:46;26.40;46.80
28087;DHT22;15392;48.912;8.380;2023-08-30T13:06:11;26.40;46.60
28087;DHT22;15392;48.912;8.380;2023-08-30T13:08:37;26.50;46.90
28087;DHT22;15392;48.912;8.380;2023-08-30T13:11:03;26.50;45.60
28087;DHT22;15392;48.912;8.380;2023-08-30T13:13:29;26.60;46.50
28087;DHT22;15392;48.912;8.380;2023-08-30T13:15:55;26.60;46.30
28087;DHT22;15392;48.912;8.380;2023-08-30T13:18:21;26.70;46.10
28087;DHT22;15392;48.912;8.380;2023-08-30T13:20:47;26.70;46.60
28087;DHT22;15392;48.912;8.380;2023-08-30T13:23:13;26.80;46.80
28087;DHT22;15392;48.912;8.380;2023-08-30T13:25:42;26.80;46.70
28087;DHT22;15392;48.912;8.380;2023-08-30T13:28:10;26.80;46.20
28087;DHT22;15392;48.912;8.380;2023-08-30T13:30:36;26.90;46.80
28087;DHT22;15392;48.912;8.380;2023-08-30T13:33:01;27.00;46.70
28087;DHT22;15392;48.912;8.380;2023-08-30T13:35:27;27.00;46.00
28087;DHT22;15392;48.912;8.380;2023-08-30T13:37:53;27.00;46.50
28087;DHT22;15392;48.912;8.380;2023-08-30T13:40:19;27.10;46.40
28087;DHT22;15392;48.912;8.380;2023-08-30T13:42:45;27.20;46.20
28087;DHT22;15392;48.912;8.380;2023-08-30T13:45:11;27.10;46.40
28087;DHT22;15392;48.912;8.380;2023-08-30T13:47:37;27.20;45.90
28087;DHT22;15392;48.912;8.380;2023-08-30T13:50:03;27.20;46.30
28087;DHT22;15392;48.912;8.380;2023-08-30T13:52:29;27.20;46.50
28087;DHT22;15392;48.912;8.380;2023-08-30T13:54:56;27.20;46.10
28087;DHT22;15392;48.912;8.380;2023-08-30T13:57:21;27.20;45.80
28087;DHT22;15392;48.912;8.380;2023-08-30T13:59:47;27.20;46.00
28087;DHT22;15392;48.912;8.380;2023-08-30T14:02:13;27.20;46.10
28087;DHT22;15392;48.912;8.380;2023-08-30T14:04:39;27.20;45.90
28087;DHT22;15392;48.912;8.380;2023-08-30T14:07:05;27.10;46.00
28087;DHT22;15392;48.912;8.380;2023-08-30T14:09:31;27.20;46.40
28087;DHT22;15392;48.912;8.380;2023-08-30T14:11:57;27.20;46.60
28087;DHT22;15392;48.912;8.380;2023-08-30T14:14:23;27.10;46.60
28087;DHT22;15392;48.912;8.380;2023-08-30T14:16:49;27.20;46.40
28087;DHT22;15392;48.912;8.380;2023-08-30T14:19:15;27.20;46.40
28087;DHT22;15392;48.912;8.380;2023-08-30T14:21:41;27.20;46.60
28087;DHT22;15392;48.912;8.380;2023-08-30T14:24:07;27.20;46.30
28087;DHT22;15392;48.912;8.380;2023-08-30T14:26:33;27.20;45.90
28087;DHT22;15392;48.912;8.380;2023-08-30T14:28:59;27.20;46.30
28087;DHT22;15392;48.912;8.380;2023-08-30T14:31:25;27.20;46.10
28087;DHT22;15392;48.912;8.380;2023-08-30T14:33:54;27.20;45.70
28087;DHT22;15392;48.912;8.380;2023-08-30T14:36:21;27.20;45.70
28087;DHT22;15392;48.912;8.380;2023-08-30T14:38:47;27.20;45.80
28087;DHT22;15392;48.912;8.380;2023-08-30T14:41:13;27.10;46.10
28087;DHT22;15392;48.912;8.380;2023-08-30T14:43:41;27.10;45.80
28087;DHT22;15392;48.912;8.380;2023-08-30T14:46:07;27.10;46.00
28087;DHT22;15392;48.912;8.380;2023-08-30T14:48:33;27.10;45.50
28087;DHT22;15392;48.912;8.380;2023-08-30T14:51:01;27.10;45.40
28087;DHT22;15392;48.912;8.380;2023-08-30T14:53:27;27.00;45.20
28087;DHT22;15392;48.912;8.380;2023-08-30T14:55:54;27.00;45.70
28087;DHT22;15392;48.912;8.380;2023-08-30T14:58:21;26.90;45.70
28087;DHT22;15392;48.912;8.380;2023-08-30T15:00:48;26.90;45.60
28087;DHT22;15392;48.912;8.380;2023-08-30T15:03:14;26.90;45.90
28087;DHT22;15392;48.912;8.380;2023-08-30T15:05:41;26.90;45.80
28087;DHT22;15392;48.912;8.380;2023-08-30T15:08:06;26.90;45.80
28087;DHT22;15392;48.912;8.380;2023-08-30T15:10:32;26.80;46.00
28087;DHT22;15392;48.912;8.380;2023-08-30T15:12:58;26.80;45.90
28087;DHT22;15392;48.912;8.380;2023-08-30T15:15:24;26.80;45.90
28087;DHT22;15392;48.912;8.380;2023-08-30T15:17:50;26.80;46.00
28087;DHT22;15392;48.912;8.380;2023-08-30T15:20:16;26.80;46.10
28087;DHT22;15392;48.912;8.380;2023-08-30T15:22:42;26.70;45.80
28087;DHT22;15392;48.912;8.380;2023-08-30T15:25:08;26.70;45.80
28087;DHT22;15392;48.912;8.380;2023-08-30T15:27:34;26.70;45.60
28087;DHT22;15392;48.912;8.380;2023-08-30T15:30:01;26.70;45.60
28087;DHT22;15392;48.912;8.380;2023-08-30T15:32:27;26.70;45.80
28087;DHT22;15392;48.912;8.380;2023-08-30T15:34:54;26.70;45.90
28087;DHT22;15392;48.912;8.380;2023-08-30T15:37:20;26.70;45.90
28087;DHT22;15392;48.912;8.380;2023-08-30T15:39:46;26.60;45.70
28087;DHT22;15392;48.912;8.380;2023-08-30T15:42:16;26.60;45.90
28087;DHT22;15392;48.912;8.380;2023-08-30T15:44:41;26.60;45.10
28087;DHT22;15392;48.912;8.380;2023-08-30T15:47:07;26.60;46.00
28087;DHT22;15392;48.912;8.380;2023-08-30T15:49:33;26.60;45.90
28087;DHT22;15392;48.912;8.380;2023-08-30T15:51:59;26.60;46.20
28087;DHT22;15392;48.912;8.380;2023-08-30T15:54:25;26.60;46.20
28087;DHT22;15392;48.912;8.380;2023-08-30T15:56:51;26.60;46.30
28087;DHT22;15392;48.912;8.380;2023-08-30T15:59:17;26.50;45.80
28087;DHT22;15392;48.912;8.380;2023-08-30T16:01:42;26.60;46.10
28087;DHT22;15392;48.912;8.380;2023-08-30T16:04:08;26.60;46.10
28087;DHT22;15392;48.912;8.380;2023-08-30T16:06:34;26.50;46.10
28087;DHT22;15392;48.912;8.380;2023-08-30T16:09:00;26.50;46.10
28087;DHT22;15392;48.912;8.380;2023-08-30T16:11:26;26.50;46.10
28087;DHT22;15392;48.912;8.380;2023-08-30T16:13:52;26.50;46.20
28087;DHT22;15392;48.912;8.380;2023-08-30T16:16:17;26.50;46.30
28087;DHT22;15392;48.912;8.380;2023-08-30T16:18:43;26.50;46.40
28087;DHT22;15392;48.912;8.380;2023-08-30T16:21:09;26.50;46.50
28087;DHT22;15392;48.912;8.380;2023-08-30T16:23:35;26.50;46.40
28087;DHT22;15392;48.912;8.380;2023-08-30T16:26:01;26.50;46.50
28087;DHT22;15392;48.912;8.380;2023-08-30T16:28:27;26.50;46.60
28087;DHT22;15392;48.912;8.380;2023-08-30T16:31:03;26.40;47.20
28087;DHT22;15392;48.912;8.380;2023-08-30T16:33:30;26.40;46.20
28087;DHT22;15392;48.912;8.380;2023-08-30T16:35:56;26.40;46.40
28087;DHT22;15392;48.912;8.380;2023-08-30T16:38:26;26.40;46.60
28087;DHT22;15392;48.912;8.380;2023-08-30T16:40:52;26.40;46.70
28087;DHT22;15392;48.912;8.380;2023-08-30T16:43:18;26.40;46.70
28087;DHT22;15392;48.912;8.380;2023-08-30T16:45:44;26.30;46.70
28087;DHT22;15392;48.912;8.380;2023-08-30T16:48:09;26.40;46.80
28087;DHT22;15392;48.912;8.380;2023-08-30T16:50:37;26.30;46.70
28087;DHT22;15392;48.912;8.380;2023-08-30T16:53:04;26.30;46.80
28087;DHT22;15392;48.912;8.380;2023-08-30T16:55:33;26.30;46.30
28087;DHT22;15392;48.912;8.380;2023-08-30T16:57:59;26.30;46.20
28087;DHT22;15392;48.912;8.380;2023-08-30T17:00:25;26.30;46.10
28087;DHT22;15392;48.912;8.380;2023-08-30T17:02:50;26.30;45.80
28087;DHT22;15392;48.912;8.380;2023-08-30T17:05:17;26.30;45.50
28087;DHT22;15392;48.912;8.380;2023-08-30T17:07:43;26.30;45.60
28087;DHT22;15392;48.912;8.380;2023-08-30T17:10:09;26.20;45.70
28087;DHT22;15392;48.912;8.380;2023-08-30T17:12:35;26.20;45.70
28087;DHT22;15392;48.912;8.380;2023-08-30T17:15:03;26.10;45.40
28087;DHT22;15392;48.912;8.380;2023-08-30T17:17:32;26.10;45.50
28087;DHT22;15392;48.912;8.380;2023-08-30T17:19:57;26.10;45.80
28087;DHT22;15392;48.912;8.380;2023-08-30T17:22:23;26.10;45.60
28087;DHT22;15392;48.912;8.380;2023-08-30T17:24:49;26.00;45.60
28087;DHT22;15392;48.912;8.380;2023-08-30T17:27:15;26.00;45.70
28087;DHT22;15392;48.912;8.380;2023-08-30T17:29:40;25.90;45.50
28087;DHT22;15392;48.912;8.380;2023-08-30T17:32:06;25.90;45.70
28087;DHT22;15392;48.912;8.380;2023-08-30T17:34:33;25.90;45.80
28087;DHT22;15392;48.912;8.380;2023-08-30T17:36:59;25.80;46.10
28087;DHT22;15392;48.912;8.380;2023-08-30T17:39:25;25.80;46.00
28087;DHT22;15392;48.912;8.380;2023-08-30T17:41:56;25.70;46.00
28087;DHT22;15392;48.912;8.380;2023-08-30T17:44:22;25.70;46.20
28087;DHT22;15392;48.912;8.380;2023-08-30T17:46:47;25.70;46.40
28087;DHT22;15392;48.912;8.380;2023-08-30T17:49:14;25.70;46.40
28087;DHT22;15392;48.912;8.380;2023-08-30T17:51:40;25.60;46.50
28087;DHT22;15392;48.912;8.380;2023-08-30T17:54:06;25.50;46.60
28087;DHT22;15392;48.912;8.380;2023-08-30T17:56:32;25.50;46.60
28087;DHT22;15392;48.912;8.380;2023-08-30T17:58:57;25.50;46.50
28087;DHT22;15392;48.912;8.380;2023-08-30T18:01:23;25.40;46.50
28087;DHT22;15392;48.912;8.380;2023-08-30T18:03:53;25.40;46.50
28087;DHT22;15392;48.912;8.380;2023-08-30T18:06:22;25.30;46.50
28087;DHT22;15392;48.912;8.380;2023-08-30T18:08:48;25.30;46.70
28087;DHT22;15392;48.912;8.380;2023-08-30T18:11:18;25.30;46.40
28087;DHT22;15392;48.912;8.380;2023-08-30T18:13:46;25.20;46.40
28087;DHT22;15392;48.912;8.380;2023-08-30T18:16:13;25.10;46.40
28087;DHT22;15392;48.912;8.380;2023-08-30T18:18:41;25.10;46.50
28087;DHT22;15392;48.912;8.380;2023-08-30T18:21:09;25.10;46.80
28087;DHT22;15392;48.912;8.380;2023-08-30T18:23:40;25.00;46.80
28087;DHT22;15392;48.912;8.380;2023-08-30T18:26:08;25.00;46.60
28087;DHT22;15392;48.912;8.380;2023-08-30T18:28:33;25.00;46.90
28087;DHT22;15392;48.912;8.380;2023-08-30T18:30:59;24.90;47.00
28087;DHT22;15392;48.912;8.380;2023-08-30T18:33:25;25.00;46.90
28087;DHT22;15392;48.912;8.380;2023-08-30T18:35:50;25.00;47.00
28087;DHT22;15392;48.912;8.380;2023-08-30T18:38:16;24.90;46.90
28087;DHT22;15392;48.912;8.380;2023-08-30T18:40:42;24.90;46.80